الصفحة الرئيسية
METAR-TAF:

METAR-TAF

مطار :

مطار عبادان الدولي

عبادان, إيران

دائرة عرض: 30-22N, خط طول: 048-15E, ارتفاع: 3 متر

مراقبة الطقس الحالي

تاريخ ووقت الإصدار 57 دقيقة قبل الساعة 04:00UTC
ريح 14 عقدة من الغرب/الشمال الغربي
درجة الحرارة 34°درجة مئوية
الرطوبة 25%
ضغط 999 hPa
الرؤية 10 كم أو أكثر
الغيوم لا تقل 1500 م ولا وجود لمزنة ركامية السحاب الأسود

METAR: OIAA 190400Z 29014KT CAVOK 34/11 Q0999

زمن: 09:27 (04:57 UTC)

توقعات

تاريخ ووقت الإصدار 5ساعات و 57 دقيقة قبل الساعة 23:00UTC
التوقعات صالحة من19 الساعة 00 UTC إلى 20 الساعة 06 UTC
ريح 7 عقدة من الشمال الغربي
الرؤية: 8000 متر

TAF: OIAA 182300Z 1900/2006 32007KT 8000 NSC

أرصاد الطقس والتوقعات من أكثر من 4000 مطار (تقارير الطقس للمطار METAR والتنبؤ بالطقس بالمطارTAF).

المحطات المتاحة هي النقط الصفراء والحمراء على الخريطة.

حرك المؤشر فوق النقطة لمعرفة اسم المحطة.

ثم انقر لمعرفة أرصاد وتوقعات الطقس.

لتغيير الخارطة: اضغط على الأزرار الخضراء مع رمز الصليب الأسود للتكبير. على الزر الأخضر مع شرطة للتصغير، أو على الأسهم الخضراء للخرائط المجاورة.


METAR-TAF: